createdAt,value
2023-05-10T00:00:36.445Z,100584.56
2023-05-10T00:03:12.409Z,100580.41
2023-05-10T00:05:39.318Z,100580.69
2023-05-10T00:08:06.545Z,100580.06
2023-05-10T00:10:33.357Z,100581.75
2023-05-10T00:13:00.570Z,100584.69
2023-05-10T00:15:27.441Z,100577.25
2023-05-10T00:17:54.512Z,100582.91
2023-05-10T00:20:21.449Z,100583.41
2023-05-10T00:22:48.486Z,100581.91
2023-05-10T00:25:15.778Z,100584.91
2023-05-10T00:27:42.852Z,100583.38
2023-05-10T00:30:12.770Z,100578.28
2023-05-10T00:32:41.249Z,100576.50
2023-05-10T00:35:08.630Z,100576.28
2023-05-10T00:37:38.680Z,100577.50
2023-05-10T00:40:06.862Z,100572.63
2023-05-10T00:42:34.449Z,100575.81
2023-05-10T00:45:02.404Z,100579.75
2023-05-10T00:47:29.949Z,100582.59
2023-05-10T00:49:57.127Z,100579.28
2023-05-10T00:52:27.281Z,100571.72
2023-05-10T00:54:54.583Z,100576.25
2023-05-10T00:57:22.724Z,100563.25
2023-05-10T00:59:52.557Z,100567.75
2023-05-10T01:02:20.688Z,100571.88
2023-05-10T01:04:48.408Z,100571.59
2023-05-10T01:07:15.939Z,100570.06
2023-05-10T01:09:46.253Z,100571.09
2023-05-10T01:12:14.137Z,100565.97
2023-05-10T01:14:41.536Z,100566.91
2023-05-10T01:17:10.367Z,100569.47
2023-05-10T01:19:38.661Z,100564.88
2023-05-10T01:22:33.586Z,100564.88
2023-05-10T01:25:22.005Z,100568.38
2023-05-10T01:28:07.499Z,100562.13
2023-05-10T01:31:11.868Z,100555.66
2023-05-10T01:33:52.673Z,100554.81
2023-05-10T01:36:33.841Z,100555.28
2023-05-10T01:39:24.060Z,100548.13
2023-05-10T01:41:58.462Z,100548.03
2023-05-10T01:45:01.211Z,100555.78
2023-05-10T01:47:36.632Z,100550.41
2023-05-10T01:50:22.589Z,100547.66
2023-05-10T01:52:55.732Z,100553.63
2023-05-10T01:55:28.454Z,100554.47
2023-05-10T01:58:06.688Z,100547.28
2023-05-10T02:00:35.647Z,100549.00
2023-05-10T02:03:07.802Z,100547.41
2023-05-10T02:05:39.851Z,100545.03
2023-05-10T02:08:08.894Z,100550.22
2023-05-10T02:10:36.321Z,100545.16
2023-05-10T02:13:04.520Z,100540.81
2023-05-10T02:15:32.591Z,100534.38
2023-05-10T02:18:01.121Z,100536.00
2023-05-10T02:20:28.382Z,100537.88
2023-05-10T02:22:57.077Z,100535.69
2023-05-10T02:25:26.558Z,100534.38
2023-05-10T02:27:57.797Z,100533.91
2023-05-10T02:30:27.190Z,100530.34
2023-05-10T02:32:54.478Z,100530.25
2023-05-10T02:35:24.879Z,100535.44
2023-05-10T02:37:55.421Z,100537.97
2023-05-10T02:40:26.787Z,100532.56
2023-05-10T02:42:58.339Z,100535.22
2023-05-10T02:45:30.075Z,100531.66
2023-05-10T02:48:01.042Z,100529.38
2023-05-10T02:50:30.030Z,100532.31
2023-05-10T02:53:02.878Z,100535.41
2023-05-10T02:55:36.539Z,100534.03
2023-05-10T02:58:04.200Z,100535.44
2023-05-10T03:00:32.693Z,100539.63
2023-05-10T03:03:02.683Z,100532.91
2023-05-10T03:05:32.812Z,100539.50
2023-05-10T03:08:01.716Z,100544.53
2023-05-10T03:10:31.811Z,100540.81
2023-05-10T03:13:36.980Z,100536.84
2023-05-10T03:16:16.831Z,100540.97
2023-05-10T03:18:55.686Z,100536.84
2023-05-10T03:21:27.110Z,100539.13
2023-05-10T03:24:08.616Z,100533.84
2023-05-10T03:26:37.753Z,100529.09
2023-05-10T03:29:06.497Z,100539.19
2023-05-10T03:31:34.205Z,100533.53
2023-05-10T03:34:01.162Z,100531.72
2023-05-10T03:36:28.233Z,100539.00
2023-05-10T03:38:55.021Z,100535.63
2023-05-10T03:41:22.384Z,100535.91
2023-05-10T03:43:49.241Z,100540.03
2023-05-10T03:46:16.395Z,100532.69
2023-05-10T03:48:45.768Z,100531.19
2023-05-10T03:51:13.518Z,100536.00
2023-05-10T03:53:40.303Z,100540.59
2023-05-10T03:56:07.407Z,100538.91
2023-05-10T03:58:34.160Z,100539.84
2023-05-10T04:01:03.793Z,100539.09
2023-05-10T04:03:32.710Z,100539.75
2023-05-10T04:06:03.072Z,100540.22
2023-05-10T04:08:30.237Z,100540.72
2023-05-10T04:11:11.625Z,100529.88
2023-05-10T04:13:39.217Z,100535.91
2023-05-10T04:16:06.650Z,100530.84
2023-05-10T04:18:33.783Z,100527.69
2023-05-10T04:21:00.934Z,100531.19
2023-05-10T04:23:28.790Z,100533.53
2023-05-10T04:26:05.199Z,100532.78
2023-05-10T04:28:34.753Z,100533.25
2023-05-10T04:31:06.548Z,100537.22
2023-05-10T04:33:37.279Z,100530.41
2023-05-10T04:36:04.772Z,100539.97
2023-05-10T04:38:31.794Z,100535.06
2023-05-10T04:41:09.823Z,100544.94
2023-05-10T04:43:37.957Z,100538.91
2023-05-10T04:46:06.124Z,100544.28
2023-05-10T04:48:33.152Z,100533.53
2023-05-10T04:51:00.724Z,100535.91
2023-05-10T04:53:27.777Z,100539.38
2023-05-10T04:55:55.891Z,100532.22
2023-05-10T04:58:22.669Z,100538.81
2023-05-10T05:00:49.797Z,100542.50
2023-05-10T05:03:16.685Z,100542.50
2023-05-10T05:05:45.133Z,100533.81
2023-05-10T05:08:12.036Z,100537.78
2023-05-10T05:10:39.565Z,100544.16
2023-05-10T05:13:06.674Z,100543.38
2023-05-10T05:15:34.269Z,100532.06
2023-05-10T05:18:01.204Z,100543.59
2023-05-10T05:20:28.460Z,100547.53
2023-05-10T05:22:55.765Z,100548.88
2023-05-10T05:25:25.530Z,100550.56
2023-05-10T05:27:52.350Z,100547.31
2023-05-10T05:30:22.224Z,100552.50
2023-05-10T05:32:50.465Z,100555.50
2023-05-10T05:35:17.887Z,100552.31
2023-05-10T05:37:48.737Z,100558.25
2023-05-10T05:40:16.229Z,100558.84
2023-05-10T05:42:43.078Z,100558.50
2023-05-10T05:45:13.954Z,100560.88
2023-05-10T05:47:41.165Z,100558.06
2023-05-10T05:50:10.947Z,100561.81
2023-05-10T05:52:41.085Z,100561.47
2023-05-10T05:55:08.220Z,100557.97
2023-05-10T05:57:35.305Z,100566.34
2023-05-10T06:00:05.066Z,100571.75
2023-05-10T06:02:32.177Z,100563.16
2023-05-10T06:04:59.528Z,100568.56
2023-05-10T06:07:29.617Z,100568.75
2023-05-10T06:09:59.460Z,100569.41
2023-05-10T06:12:26.566Z,100570.25
2023-05-10T06:14:54.412Z,100571.09
2023-05-10T06:17:22.716Z,100569.72
2023-05-10T06:19:52.294Z,100565.75
2023-05-10T06:22:19.618Z,100570.19
2023-05-10T06:24:46.447Z,100578.66
2023-05-10T06:27:14.862Z,100566.81
2023-05-10T06:29:42.779Z,100571.75
2023-05-10T06:32:10.108Z,100580.09
2023-05-10T06:34:37.395Z,100583.28
2023-05-10T06:37:04.574Z,100579.78
2023-05-10T06:39:31.312Z,100583.88
2023-05-10T06:41:58.364Z,100574.81
2023-05-10T06:44:25.193Z,100579.94
2023-05-10T06:46:53.598Z,100582.56
2023-05-10T06:49:20.419Z,100583.69
2023-05-10T06:51:47.849Z,100582.03
2023-05-10T06:54:14.718Z,100579.97
2023-05-10T06:56:44.605Z,100580.53
2023-05-10T06:59:11.603Z,100572.31
2023-05-10T07:01:38.742Z,100582.25
2023-05-10T07:04:06.030Z,100573.56
2023-05-10T07:06:37.083Z,100576.50
2023-05-10T07:09:04.101Z,100570.41
2023-05-10T07:11:34.038Z,100574.81
2023-05-10T07:14:01.024Z,100572.31
2023-05-10T07:16:28.113Z,100571.75
2023-05-10T07:18:55.457Z,100569.25
2023-05-10T07:21:24.990Z,100569.66
2023-05-10T07:23:52.576Z,100572.44
2023-05-10T07:26:22.384Z,100569.56
2023-05-10T07:28:49.173Z,100570.59
2023-05-10T07:31:16.336Z,100567.56
2023-05-10T07:33:43.143Z,100557.34
2023-05-10T07:36:10.262Z,100569.31
2023-05-10T07:38:40.805Z,100562.09
2023-05-10T07:41:08.068Z,100557.41
2023-05-10T07:43:34.903Z,100554.22
2023-05-10T07:46:05.217Z,100552.28
2023-05-10T07:48:33.533Z,100558.31
2023-05-10T07:51:00.644Z,100556.34
2023-05-10T07:53:28.352Z,100556.00
2023-05-10T07:55:59.225Z,100557.47
2023-05-10T07:58:28.730Z,100555.28
2023-05-10T08:00:55.880Z,100551.66
2023-05-10T08:03:22.758Z,100551.53
2023-05-10T08:05:50.190Z,100556.72
2023-05-10T08:08:21.025Z,100554.78
2023-05-10T08:10:50.288Z,100558.03
2023-05-10T08:13:19.806Z,100555.88
2023-05-10T08:15:47.289Z,100549.09
2023-05-10T08:18:17.183Z,100554.56
2023-05-10T08:20:44.319Z,100560.38
2023-05-10T08:23:11.128Z,100551.75
2023-05-10T08:25:38.208Z,100553.34
2023-05-10T08:28:05.082Z,100556.97
2023-05-10T08:30:32.247Z,100552.25
2023-05-10T08:32:59.285Z,100554.53
2023-05-10T08:35:26.461Z,100552.38
2023-05-10T08:37:53.597Z,100549.22
2023-05-10T08:40:21.641Z,100553.91
2023-05-10T08:42:58.756Z,100550.53
2023-05-10T08:45:33.534Z,100551.66
2023-05-10T08:48:06.046Z,100555.41
2023-05-10T08:50:36.629Z,100546.47
2023-05-10T08:53:07.021Z,100545.38
2023-05-10T08:55:34.855Z,100550.16
2023-05-10T08:58:01.711Z,100550.25
2023-05-10T09:00:29.845Z,100547.91
2023-05-10T09:02:58.056Z,100551.38
2023-05-10T09:05:28.242Z,100539.78
2023-05-10T09:07:55.076Z,100544.16
2023-05-10T09:10:22.752Z,100547.28
2023-05-10T09:12:50.360Z,100552.63
2023-05-10T09:15:22.626Z,100545.22
2023-05-10T09:17:50.867Z,100554.22
2023-05-10T09:20:21.616Z,100547.88
2023-05-10T09:22:48.395Z,100546.34
2023-05-10T09:25:17.231Z,100544.41
2023-05-10T09:27:50.496Z,100540.09
2023-05-10T09:30:31.558Z,100524.16
2023-05-10T09:33:00.294Z,100543.72
2023-05-10T09:35:33.855Z,100534.75
2023-05-10T09:38:03.752Z,100540.50
2023-05-10T09:40:31.766Z,100532.31
2023-05-10T09:43:07.882Z,100529.34
2023-05-10T09:45:38.593Z,100529.97
2023-05-10T09:48:06.497Z,100528.78
2023-05-10T09:50:36.344Z,100533.97
2023-05-10T09:53:04.883Z,100529.28
2023-05-10T09:55:45.785Z,100527.06
2023-05-10T09:58:14.468Z,100526.09
2023-05-10T10:00:44.374Z,100527.53
2023-05-10T10:03:19.717Z,100523.13
2023-05-10T10:05:49.057Z,100514.47
2023-05-10T10:08:18.379Z,100509.47
2023-05-10T10:10:47.192Z,100507.75
2023-05-10T10:13:15.279Z,100495.03
2023-05-10T10:15:44.510Z,100502.34
2023-05-10T10:18:15.725Z,100509.00
2023-05-10T10:20:43.156Z,100506.38
2023-05-10T10:23:10.188Z,100501.63
2023-05-10T10:25:39.929Z,100497.56
2023-05-10T10:28:33.566Z,100493.25
2023-05-10T10:31:14.731Z,100492.78
2023-05-10T10:33:58.028Z,100491.06
2023-05-10T10:36:28.038Z,100486.47
2023-05-10T10:38:58.940Z,100495.06
2023-05-10T10:41:31.824Z,100487.44
2023-05-10T10:44:23.927Z,100484.63
2023-05-10T10:47:14.081Z,100484.88
2023-05-10T10:49:40.868Z,100484.09
2023-05-10T10:52:34.576Z,100481.13
2023-05-10T10:55:23.525Z,100474.66
2023-05-10T10:57:53.440Z,100465.41
2023-05-10T11:00:23.594Z,100461.16
2023-05-10T11:02:59.181Z,100456.59
2023-05-10T11:05:34.526Z,100453.22
2023-05-10T11:08:18.012Z,100453.03
2023-05-10T11:11:01.585Z,100454.75
2023-05-10T11:13:40.941Z,100456.59
2023-05-10T11:16:16.960Z,100451.47
2023-05-10T11:19:04.711Z,100446.59
2023-05-10T11:21:44.924Z,100438.81
2023-05-10T11:24:17.571Z,100437.03
2023-05-10T11:26:44.537Z,100428.63
2023-05-10T11:29:14.009Z,100430.06
2023-05-10T11:31:46.157Z,100426.94
2023-05-10T11:34:23.600Z,100421.31
2023-05-10T11:36:55.523Z,100414.91
2023-05-10T11:39:30.810Z,100417.25
2023-05-10T11:41:58.646Z,100423.47
2023-05-10T11:44:32.445Z,100424.28
2023-05-10T11:47:01.252Z,100430.78
2023-05-10T11:49:31.554Z,100420.31
2023-05-10T11:52:07.153Z,100432.50
2023-05-10T11:54:35.986Z,100427.50
2023-05-10T11:57:03.270Z,100435.13
2023-05-10T11:59:30.929Z,100429.53
2023-05-10T12:01:59.558Z,100437.16
2023-05-10T12:04:27.721Z,100423.34
2023-05-10T12:06:54.663Z,100421.25
2023-05-10T12:09:35.418Z,100421.56
2023-05-10T12:12:07.235Z,100421.63
2023-05-10T12:14:40.931Z,100419.84
2023-05-10T12:17:12.372Z,100427.56
2023-05-10T12:19:40.223Z,100417.34
2023-05-10T12:22:07.553Z,100423.94
2023-05-10T12:24:39.280Z,100422.94
2023-05-10T12:27:09.709Z,100416.75
2023-05-10T12:29:37.652Z,100421.03
2023-05-10T12:32:04.623Z,100412.47
2023-05-10T12:34:37.075Z,100417.63
2023-05-10T12:37:07.731Z,100402.34
2023-05-10T12:39:43.091Z,100403.13
2023-05-10T12:42:10.859Z,100398.81
2023-05-10T12:44:37.902Z,100403.44
2023-05-10T12:47:06.091Z,100400.00
2023-05-10T12:49:33.202Z,100398.38
2023-05-10T12:52:01.041Z,100398.06
2023-05-10T12:54:28.879Z,100390.16
2023-05-10T12:56:55.958Z,100397.34
2023-05-10T12:59:23.853Z,100390.59
2023-05-10T13:01:50.747Z,100380.88
2023-05-10T13:04:17.848Z,100381.50
2023-05-10T13:06:45.109Z,100377.41
2023-05-10T13:09:15.035Z,100378.13
2023-05-10T13:11:42.055Z,100372.03
2023-05-10T13:14:09.494Z,100378.91
2023-05-10T13:16:36.756Z,100370.53
2023-05-10T13:19:06.969Z,100368.63
2023-05-10T13:21:33.796Z,100364.53
2023-05-10T13:24:02.415Z,100360.44
2023-05-10T13:26:29.584Z,100347.50
2023-05-10T13:28:56.778Z,100351.59
2023-05-10T13:31:23.635Z,100335.59
2023-05-10T13:33:54.023Z,100344.75
2023-05-10T13:36:20.979Z,100339.41
2023-05-10T13:38:48.206Z,100331.16
2023-05-10T13:41:18.078Z,100336.34
2023-05-10T13:43:45.676Z,100337.72
2023-05-10T13:46:12.514Z,100338.88
2023-05-10T13:48:39.587Z,100334.88
2023-05-10T13:51:06.401Z,100332.63
2023-05-10T13:53:33.453Z,100329.56
2023-05-10T13:56:00.252Z,100326.69
2023-05-10T13:58:27.671Z,100316.41
2023-05-10T14:00:54.625Z,100318.38
2023-05-10T14:03:21.860Z,100313.13
2023-05-10T14:05:48.705Z,100310.72
2023-05-10T14:08:15.842Z,100311.56
2023-05-10T14:10:42.904Z,100318.13
2023-05-10T14:13:13.304Z,100307.47
2023-05-10T14:15:43.303Z,100307.72
2023-05-10T14:18:10.393Z,100292.31
2023-05-10T14:20:37.571Z,100301.94
2023-05-10T14:23:04.663Z,100302.22
2023-05-10T14:25:32.032Z,100281.69
2023-05-10T14:28:00.268Z,100283.66
2023-05-10T14:30:27.116Z,100282.69
2023-05-10T14:32:55.074Z,100293.78
2023-05-10T14:35:22.510Z,100295.00
2023-05-10T14:37:49.707Z,100296.78
2023-05-10T14:40:18.206Z,100284.19
2023-05-10T14:42:45.287Z,100286.91
2023-05-10T14:45:13.062Z,100294.66
2023-05-10T14:47:40.181Z,100299.81
2023-05-10T14:50:09.027Z,100295.25
2023-05-10T14:52:36.577Z,100289.53
2023-05-10T14:55:03.602Z,100294.81
2023-05-10T14:57:30.803Z,100300.00
2023-05-10T15:00:00.462Z,100305.22
2023-05-10T15:02:28.166Z,100308.91
2023-05-10T15:04:55.482Z,100310.63
2023-05-10T15:07:23.038Z,100307.84
2023-05-10T15:09:51.390Z,100310.06
2023-05-10T15:12:19.363Z,100308.56
2023-05-10T15:14:46.154Z,100306.72
2023-05-10T15:17:13.275Z,100302.34
2023-05-10T15:19:44.337Z,100302.91
2023-05-10T15:22:12.806Z,100303.22
2023-05-10T15:24:39.572Z,100288.03
2023-05-10T15:27:06.933Z,100304.06
2023-05-10T15:29:35.223Z,100293.53
2023-05-10T15:32:03.722Z,100295.50
2023-05-10T15:34:32.245Z,100294.50
2023-05-10T15:37:00.970Z,100297.66
2023-05-10T15:39:27.725Z,100295.59
2023-05-10T15:42:02.320Z,100285.41
2023-05-10T15:44:31.663Z,100286.28
2023-05-10T15:46:58.834Z,100290.50
2023-05-10T15:49:28.585Z,100283.91
2023-05-10T15:51:55.673Z,100285.41
2023-05-10T15:54:22.540Z,100284.28
2023-05-10T15:56:49.564Z,100276.19
2023-05-10T15:59:16.337Z,100284.78
2023-05-10T16:01:43.609Z,100285.09
2023-05-10T16:04:10.447Z,100286.81
2023-05-10T16:06:38.085Z,100288.94
2023-05-10T16:09:04.877Z,100283.84
2023-05-10T16:11:33.162Z,100289.47
2023-05-10T16:13:59.958Z,100294.03
2023-05-10T16:16:27.156Z,100288.44
2023-05-10T16:18:57.971Z,100293.94
2023-05-10T16:21:29.033Z,100290.81
2023-05-10T16:23:58.284Z,100286.69
2023-05-10T16:26:25.692Z,100283.44
2023-05-10T16:28:52.456Z,100291.53
2023-05-10T16:31:20.707Z,100285.06
2023-05-10T16:33:47.605Z,100285.19
2023-05-10T16:36:14.731Z,100292.03
2023-05-10T16:38:41.941Z,100301.50
2023-05-10T16:41:09.027Z,100302.38
2023-05-10T16:43:36.753Z,100297.63
2023-05-10T16:46:10.219Z,100296.97
2023-05-10T16:48:38.446Z,100306.13
2023-05-10T16:51:05.533Z,100301.63
2023-05-10T16:53:32.595Z,100299.66
2023-05-10T16:55:59.769Z,100309.22
2023-05-10T16:58:26.912Z,100307.09
2023-05-10T17:00:54.161Z,100308.50
2023-05-10T17:03:21.163Z,100322.94
2023-05-10T17:05:48.630Z,100308.75
2023-05-10T17:08:16.100Z,100317.06
2023-05-10T17:10:45.419Z,100324.66
2023-05-10T17:13:12.394Z,100321.84
2023-05-10T17:15:39.987Z,100319.03
2023-05-10T17:18:07.628Z,100322.31
2023-05-10T17:20:35.036Z,100327.59
2023-05-10T17:23:03.702Z,100328.97
2023-05-10T17:25:30.830Z,100325.16
2023-05-10T17:27:57.595Z,100331.59
2023-05-10T17:30:27.520Z,100327.03
2023-05-10T17:32:54.639Z,100332.94
2023-05-10T17:35:21.818Z,100325.63
2023-05-10T17:37:48.767Z,100332.72
2023-05-10T17:40:17.290Z,100337.75
2023-05-10T17:42:44.394Z,100333.53
2023-05-10T17:45:12.794Z,100339.25
2023-05-10T17:47:39.642Z,100335.56
2023-05-10T17:50:10.251Z,100338.78
2023-05-10T17:52:40.354Z,100340.38
2023-05-10T17:55:08.635Z,100339.31
2023-05-10T17:57:38.798Z,100351.59
2023-05-10T18:00:09.207Z,100352.41
2023-05-10T18:02:37.143Z,100354.47
2023-05-10T18:05:05.060Z,100345.19
2023-05-10T18:07:36.091Z,100345.09
2023-05-10T18:10:03.285Z,100357.38
2023-05-10T18:12:30.074Z,100352.19
2023-05-10T18:14:57.732Z,100352.94
2023-05-10T18:17:24.846Z,100358.16
2023-05-10T18:19:52.320Z,100363.97
2023-05-10T18:22:19.257Z,100361.19
2023-05-10T18:24:47.150Z,100369.59
2023-05-10T18:27:14.028Z,100363.78
2023-05-10T18:29:41.278Z,100371.28
2023-05-10T18:32:08.113Z,100371.41
2023-05-10T18:34:35.246Z,100373.59
2023-05-10T18:37:07.325Z,100375.63
2023-05-10T18:39:34.784Z,100372.75
2023-05-10T18:42:01.848Z,100377.59
2023-05-10T18:44:29.265Z,100383.03
2023-05-10T18:46:56.630Z,100382.28
2023-05-10T18:49:23.934Z,100384.50
2023-05-10T18:51:51.063Z,100385.44
2023-05-10T18:54:18.303Z,100381.34
2023-05-10T18:56:45.411Z,100387.66
2023-05-10T18:59:13.013Z,100386.78
2023-05-10T19:01:42.841Z,100392.13
2023-05-10T19:04:09.987Z,100390.44
2023-05-10T19:06:37.062Z,100390.66
2023-05-10T19:09:04.267Z,100393.56
2023-05-10T19:11:34.123Z,100400.69
2023-05-10T19:14:01.985Z,100405.53
2023-05-10T19:16:30.263Z,100405.41
2023-05-10T19:18:57.627Z,100403.72
2023-05-10T19:21:24.453Z,100405.53
2023-05-10T19:23:52.178Z,100405.75
2023-05-10T19:26:19.239Z,100416.50
2023-05-10T19:28:46.332Z,100412.16
2023-05-10T19:31:13.453Z,100412.28
2023-05-10T19:33:40.855Z,100410.59
2023-05-10T19:36:07.693Z,100408.91
2023-05-10T19:38:35.162Z,100405.38
2023-05-10T19:41:02.013Z,100406.47
2023-05-10T19:43:33.301Z,100404.78
2023-05-10T19:46:04.202Z,100404.06
2023-05-10T19:48:32.178Z,100401.50
2023-05-10T19:51:03.657Z,100398.13
2023-05-10T19:53:31.680Z,100405.25
2023-05-10T19:56:06.420Z,100403.69
2023-05-10T19:58:34.032Z,100393.06
2023-05-10T20:01:01.237Z,100398.38
2023-05-10T20:03:29.107Z,100398.25
2023-05-10T20:05:55.991Z,100394.88
2023-05-10T20:08:23.052Z,100396.69
2023-05-10T20:10:49.856Z,100394.03
2023-05-10T20:13:16.969Z,100395.81
2023-05-10T20:15:44.335Z,100400.19
2023-05-10T20:18:11.447Z,100397.63
2023-05-10T20:20:39.130Z,100401.25
2023-05-10T20:23:06.261Z,100400.28
2023-05-10T20:25:33.072Z,100404.06
2023-05-10T20:28:00.262Z,100405.84
2023-05-10T20:30:27.106Z,100403.19
2023-05-10T20:32:54.326Z,100402.34
2023-05-10T20:35:21.310Z,100401.63
2023-05-10T20:37:48.483Z,100404.38
2023-05-10T20:40:15.804Z,100401.00
2023-05-10T20:42:43.007Z,100401.88
2023-05-10T20:45:10.348Z,100398.38
2023-05-10T20:47:37.624Z,100398.38
2023-05-10T20:50:04.948Z,100400.88
2023-05-10T20:52:32.035Z,100395.59
2023-05-10T20:54:58.787Z,100403.69
2023-05-10T20:57:26.220Z,100402.84
2023-05-10T20:59:53.169Z,100399.47
2023-05-10T21:02:20.447Z,100407.53
2023-05-10T21:04:47.378Z,100401.38
2023-05-10T21:07:14.528Z,100402.22
2023-05-10T21:09:41.339Z,100397.78
2023-05-10T21:12:10.366Z,100397.03
2023-05-10T21:14:37.189Z,100397.88
2023-05-10T21:17:04.410Z,100397.88
2023-05-10T21:19:31.199Z,100399.56
2023-05-10T21:21:59.761Z,100408.50
2023-05-10T21:24:26.921Z,100396.91
2023-05-10T21:26:56.240Z,100406.91
2023-05-10T21:29:23.190Z,100406.28
2023-05-10T21:31:50.601Z,100397.41
2023-05-10T21:34:18.004Z,100397.63
2023-05-10T21:36:45.060Z,100407.38
2023-05-10T21:39:11.989Z,100401.47
2023-05-10T21:41:39.076Z,100409.91
2023-05-10T21:44:06.236Z,100403.00
2023-05-10T21:46:33.319Z,100412.06
2023-05-10T21:49:00.158Z,100405.41
2023-05-10T21:51:29.266Z,100401.19
2023-05-10T21:53:56.274Z,100405.66
2023-05-10T21:56:23.481Z,100404.81
2023-05-10T21:58:50.420Z,100403.13
2023-05-10T22:01:18.071Z,100402.47
2023-05-10T22:03:44.919Z,100405.84
2023-05-10T22:06:12.243Z,100404.03
2023-05-10T22:08:39.023Z,100414.88
2023-05-10T22:11:06.325Z,100411.38
2023-05-10T22:13:33.090Z,100411.38
2023-05-10T22:16:00.641Z,100405.97
2023-05-10T22:18:27.528Z,100421.88
2023-05-10T22:20:54.693Z,100412.34
2023-05-10T22:23:21.483Z,100414.25
2023-05-10T22:25:48.554Z,100418.13
2023-05-10T22:28:15.312Z,100422.34
2023-05-10T22:30:43.365Z,100414.63
2023-05-10T22:33:10.198Z,100420.78
2023-05-10T22:35:37.257Z,100420.13
2023-05-10T22:38:04.209Z,100415.78
2023-05-10T22:40:32.279Z,100419.75
2023-05-10T22:42:59.140Z,100416.38
2023-05-10T22:45:26.206Z,100418.50
2023-05-10T22:47:53.146Z,100420.56
2023-05-10T22:50:21.132Z,100422.81
2023-05-10T22:52:48.064Z,100426.75
2023-05-10T22:55:15.189Z,100418.41
2023-05-10T22:57:42.004Z,100419.59
2023-05-10T23:00:09.513Z,100426.41
2023-05-10T23:02:36.403Z,100429.63
2023-05-10T23:05:05.453Z,100417.88
2023-05-10T23:07:32.747Z,100420.97
2023-05-10T23:09:59.888Z,100427.44
2023-05-10T23:12:26.707Z,100422.38
2023-05-10T23:14:54.802Z,100421.84
2023-05-10T23:17:21.603Z,100423.03
2023-05-10T23:19:48.656Z,100424.91
2023-05-10T23:22:15.447Z,100420.69
2023-05-10T23:24:42.537Z,100426.09
2023-05-10T23:27:11.385Z,100428.31
2023-05-10T23:29:38.469Z,100426.00
2023-05-10T23:32:05.522Z,100428.13
2023-05-10T23:34:32.709Z,100431.09
2023-05-10T23:36:59.635Z,100425.81
2023-05-10T23:39:26.762Z,100435.34
2023-05-10T23:41:53.647Z,100430.03
2023-05-10T23:44:20.685Z,100426.44
2023-05-10T23:46:47.444Z,100433.28
2023-05-10T23:49:14.511Z,100443.38
2023-05-10T23:51:41.391Z,100441.16
2023-05-10T23:54:08.731Z,100443.94
2023-05-10T23:56:35.574Z,100437.97
2023-05-10T23:59:02.659Z,100440.75
